createdAt,value
2019-02-20T00:00:45.552Z,99519.33
2019-02-20T00:03:16.139Z,99520.59
2019-02-20T00:05:46.623Z,99519.70
2019-02-20T00:08:17.012Z,99522.64
2019-02-20T00:10:47.632Z,99523.92
2019-02-20T00:13:18.084Z,99524.97
2019-02-20T00:15:48.570Z,99530.73
2019-02-20T00:18:18.932Z,99539.73
2019-02-20T00:20:49.452Z,99539.22
2019-02-20T00:23:19.982Z,99538.61
2019-02-20T00:25:50.395Z,99551.45
2019-02-20T00:28:20.975Z,99542.08
2019-02-20T00:30:51.603Z,99554.52
2019-02-20T00:33:22.148Z,99551.17
2019-02-20T00:35:53.376Z,99549.00
2019-02-20T00:38:23.848Z,99550.01
2019-02-20T00:40:54.572Z,99557.80
2019-02-20T00:43:25.085Z,99553.94
2019-02-20T00:46:05.460Z,99558.02
2019-02-20T00:48:44.212Z,99562.12
2019-02-20T00:51:26.238Z,99559.94
2019-02-20T00:54:00.192Z,99573.27
2019-02-20T00:56:30.671Z,99557.44
2019-02-20T00:59:01.149Z,99557.59
2019-02-20T01:01:31.703Z,99557.44
2019-02-20T01:04:02.174Z,99564.91
2019-02-20T01:06:32.709Z,99565.02
2019-02-20T01:09:03.992Z,99555.03
2019-02-20T01:11:34.549Z,99550.02
2019-02-20T01:14:05.094Z,99552.81
2019-02-20T01:16:35.596Z,99546.66
2019-02-20T01:19:06.104Z,99546.66
2019-02-20T01:21:36.564Z,99551.27
2019-02-20T01:24:07.191Z,99550.48
2019-02-20T01:26:37.682Z,99553.31
2019-02-20T01:29:08.264Z,99551.27
2019-02-20T01:31:38.882Z,99566.30
2019-02-20T01:34:09.426Z,99563.60
2019-02-20T01:36:39.904Z,99568.47
2019-02-20T01:39:10.512Z,99562.59
2019-02-20T01:41:40.914Z,99562.50
2019-02-20T01:44:11.454Z,99561.00
2019-02-20T01:46:41.894Z,99557.66
2019-02-20T01:49:12.479Z,99555.26
2019-02-20T01:51:44.975Z,99555.03
2019-02-20T01:54:15.214Z,99554.30
2019-02-20T01:56:45.870Z,99549.69
2019-02-20T01:59:16.454Z,99552.00
2019-02-20T02:01:47.622Z,99543.28
2019-02-20T02:04:18.034Z,99547.62
2019-02-20T02:06:48.592Z,99544.94
2019-02-20T02:09:19.148Z,99539.17
2019-02-20T02:11:49.975Z,99546.86
2019-02-20T02:14:20.514Z,99548.64
2019-02-20T02:16:51.082Z,99547.09
2019-02-20T02:19:21.552Z,99562.86
2019-02-20T02:21:51.968Z,99570.05
2019-02-20T02:24:22.424Z,99561.21
2019-02-20T02:26:52.923Z,99568.78
2019-02-20T02:29:23.475Z,99564.81
2019-02-20T02:31:53.951Z,99572.75
2019-02-20T02:34:24.481Z,99570.20
2019-02-20T02:36:54.974Z,99565.20
2019-02-20T02:39:25.663Z,99572.23
2019-02-20T02:41:56.200Z,99577.09
2019-02-20T02:44:26.754Z,99567.11
2019-02-20T02:46:57.272Z,99574.80
2019-02-20T02:49:27.684Z,99578.39
2019-02-20T02:51:58.318Z,99578.11
2019-02-20T02:54:28.794Z,99584.52
2019-02-20T02:56:59.191Z,99580.42
2019-02-20T02:59:29.732Z,99578.11
2019-02-20T03:02:00.134Z,99582.98
2019-02-20T03:04:30.631Z,99580.79
2019-02-20T03:07:01.138Z,99583.52
2019-02-20T03:09:31.725Z,99585.42
2019-02-20T03:12:02.160Z,99577.25
2019-02-20T03:14:32.700Z,99586.84
2019-02-20T03:17:03.320Z,99584.41
2019-02-20T03:19:33.926Z,99580.19
2019-02-20T03:22:04.503Z,99585.81
2019-02-20T03:24:35.053Z,99587.89
2019-02-20T03:27:05.564Z,99590.95
2019-02-20T03:29:36.069Z,99585.81
2019-02-20T03:32:06.747Z,99592.89
2019-02-20T03:34:37.383Z,99601.98
2019-02-20T03:37:08.319Z,99591.08
2019-02-20T03:39:38.734Z,99587.35
2019-02-20T03:42:10.063Z,99589.42
2019-02-20T03:44:40.664Z,99587.89
2019-02-20T03:47:11.232Z,99594.30
2019-02-20T03:49:41.729Z,99595.05
2019-02-20T03:52:12.224Z,99597.36
2019-02-20T03:54:42.837Z,99594.93
2019-02-20T03:57:13.388Z,99602.11
2019-02-20T03:59:44.009Z,99597.61
2019-02-20T04:02:14.398Z,99594.05
2019-02-20T04:04:44.779Z,99598.63
2019-02-20T04:07:15.291Z,99594.16
2019-02-20T04:09:45.782Z,99597.34
2019-02-20T04:12:16.348Z,99595.68
2019-02-20T04:14:46.876Z,99602.21
2019-02-20T04:17:17.374Z,99605.03
2019-02-20T04:19:47.783Z,99595.30
2019-02-20T04:22:18.226Z,99601.18
2019-02-20T04:24:48.746Z,99600.43
2019-02-20T04:27:19.133Z,99604.53
2019-02-20T04:29:49.664Z,99601.06
2019-02-20T04:32:20.415Z,99607.34
2019-02-20T04:34:50.936Z,99599.16
2019-02-20T04:37:21.338Z,99595.30
2019-02-20T04:39:51.819Z,99596.05
2019-02-20T04:42:22.326Z,99600.43
2019-02-20T04:44:52.780Z,99601.58
2019-02-20T04:47:23.105Z,99597.86
2019-02-20T04:49:53.619Z,99599.89
2019-02-20T04:52:24.116Z,99605.30
2019-02-20T04:54:54.730Z,99606.82
2019-02-20T04:57:25.153Z,99605.28
2019-02-20T04:59:55.689Z,99608.09
2019-02-20T05:02:26.280Z,99608.33
2019-02-20T05:04:56.741Z,99603.61
2019-02-20T05:07:27.389Z,99610.16
2019-02-20T05:09:57.763Z,99610.78
2019-02-20T05:12:28.235Z,99617.59
2019-02-20T05:14:58.563Z,99618.09
2019-02-20T05:17:29.116Z,99621.56
2019-02-20T05:19:59.637Z,99628.47
2019-02-20T05:22:30.037Z,99621.94
2019-02-20T05:25:00.534Z,99631.83
2019-02-20T05:27:31.025Z,99630.55
2019-02-20T05:30:01.624Z,99630.92
2019-02-20T05:32:32.272Z,99628.47
2019-02-20T05:35:02.668Z,99633.98
2019-02-20T05:37:33.068Z,99637.34
2019-02-20T05:40:03.733Z,99641.94
2019-02-20T05:42:34.264Z,99647.59
2019-02-20T05:45:04.846Z,99645.94
2019-02-20T05:47:35.425Z,99650.66
2019-02-20T05:50:06.519Z,99649.26
2019-02-20T05:52:37.196Z,99649.91
2019-02-20T05:55:07.748Z,99659.64
2019-02-20T05:57:38.177Z,99655.67
2019-02-20T06:00:10.445Z,99653.88
2019-02-20T06:02:40.950Z,99661.95
2019-02-20T06:05:11.570Z,99670.80
2019-02-20T06:07:42.122Z,99677.87
2019-02-20T06:10:12.825Z,99682.22
2019-02-20T06:12:44.144Z,99683.00
2019-02-20T06:15:20.111Z,99686.84
2019-02-20T06:17:51.873Z,99688.75
2019-02-20T06:20:22.304Z,99692.23
2019-02-20T06:22:53.176Z,99695.95
2019-02-20T06:25:24.551Z,99698.64
2019-02-20T06:27:55.244Z,99694.66
2019-02-20T06:30:25.689Z,99693.25
2019-02-20T06:32:56.529Z,99697.97
2019-02-20T06:35:27.105Z,99702.23
2019-02-20T06:37:57.759Z,99708.64
2019-02-20T06:40:29.124Z,99710.92
2019-02-20T06:42:59.535Z,99711.70
2019-02-20T06:45:29.958Z,99714.02
2019-02-20T06:48:00.458Z,99706.31
2019-02-20T06:50:31.039Z,99709.53
2019-02-20T06:53:01.621Z,99711.19
2019-02-20T06:55:32.114Z,99714.38
2019-02-20T06:58:02.495Z,99714.79
2019-02-20T07:00:33.014Z,99715.16
2019-02-20T07:03:03.563Z,99718.09
2019-02-20T07:05:40.066Z,99722.60
2019-02-20T07:09:08.018Z,99723.22
2019-02-20T07:12:30.479Z,99724.78
2019-02-20T07:15:41.578Z,99733.35
2019-02-20T07:18:48.959Z,99728.09
2019-02-20T07:22:09.213Z,99730.15
2019-02-20T07:25:28.085Z,99740.79
2019-02-20T07:28:44.683Z,99738.87
2019-02-20T07:31:15.323Z,99750.14
2019-02-20T07:33:46.656Z,99750.78
2019-02-20T07:36:17.134Z,99752.67
2019-02-20T07:38:47.554Z,99759.63
2019-02-20T07:41:18.014Z,99761.94
2019-02-20T07:43:48.547Z,99766.14
2019-02-20T07:46:19.172Z,99768.69
2019-02-20T07:48:49.562Z,99775.25
2019-02-20T07:51:20.044Z,99778.44
2019-02-20T07:53:50.560Z,99777.55
2019-02-20T07:56:21.184Z,99778.81
2019-02-20T07:58:51.695Z,99778.64
2019-02-20T08:01:22.129Z,99783.11
2019-02-20T08:03:52.673Z,99779.02
2019-02-20T08:06:23.153Z,99787.27
2019-02-20T08:08:53.969Z,99784.95
2019-02-20T08:11:24.604Z,99786.23
2019-02-20T08:13:55.022Z,99781.61
2019-02-20T08:16:25.550Z,99790.70
2019-02-20T08:18:56.143Z,99798.27
2019-02-20T08:21:26.722Z,99797.66
2019-02-20T08:23:57.248Z,99797.78
2019-02-20T08:26:27.677Z,99801.98
2019-02-20T08:28:57.972Z,99819.70
2019-02-20T08:31:28.306Z,99812.75
2019-02-20T08:33:58.893Z,99813.38
2019-02-20T08:36:29.306Z,99817.44
2019-02-20T08:38:59.684Z,99822.94
2019-02-20T08:41:30.193Z,99815.34
2019-02-20T08:44:00.815Z,99815.78
2019-02-20T08:46:31.356Z,99818.84
2019-02-20T08:49:01.923Z,99814.34
2019-02-20T08:51:32.311Z,99816.63
2019-02-20T08:54:04.454Z,99827.27
2019-02-20T08:56:35.006Z,99827.61
2019-02-20T08:59:05.654Z,99828.98
2019-02-20T09:01:36.131Z,99831.70
2019-02-20T09:04:06.951Z,99833.48
2019-02-20T09:06:37.415Z,99838.19
2019-02-20T09:09:08.490Z,99842.89
2019-02-20T09:11:38.998Z,99843.80
2019-02-20T09:14:09.457Z,99840.47
2019-02-20T09:16:39.912Z,99844.29
2019-02-20T09:19:10.412Z,99838.50
2019-02-20T09:21:41.054Z,99841.15
2019-02-20T09:24:11.608Z,99842.78
2019-02-20T09:26:42.142Z,99849.55
2019-02-20T09:29:12.556Z,99849.06
2019-02-20T09:31:42.939Z,99855.87
2019-02-20T09:34:13.312Z,99842.73
2019-02-20T09:36:43.750Z,99857.08
2019-02-20T09:39:36.027Z,99858.25
2019-02-20T09:42:16.515Z,99854.38
2019-02-20T09:44:51.134Z,99847.41
2019-02-20T09:47:22.217Z,99854.55
2019-02-20T09:49:52.639Z,99864.28
2019-02-20T09:52:23.087Z,99865.20
2019-02-20T09:54:53.563Z,99866.54
2019-02-20T09:57:24.172Z,99864.63
2019-02-20T09:59:54.750Z,99875.92
2019-02-20T10:02:25.251Z,99872.41
2019-02-20T10:04:55.679Z,99871.55
2019-02-20T10:07:26.232Z,99877.13
2019-02-20T10:09:56.695Z,99883.31
2019-02-20T10:12:27.504Z,99888.47
2019-02-20T10:14:57.999Z,99887.59
2019-02-20T10:17:28.584Z,99890.06
2019-02-20T10:19:59.143Z,99895.46
2019-02-20T10:22:29.700Z,99881.75
2019-02-20T10:25:00.344Z,99893.23
2019-02-20T10:27:30.882Z,99888.95
2019-02-20T10:30:01.381Z,99895.59
2019-02-20T10:32:31.895Z,99904.41
2019-02-20T10:35:02.203Z,99902.92
2019-02-20T10:37:32.835Z,99888.69
2019-02-20T10:40:03.267Z,99894.75
2019-02-20T10:42:33.732Z,99906.69
2019-02-20T10:45:04.409Z,99899.66
2019-02-20T10:47:34.905Z,99901.94
2019-02-20T10:50:06.222Z,99885.77
2019-02-20T10:52:36.672Z,99888.74
2019-02-20T10:55:08.481Z,99893.90
2019-02-20T10:57:38.849Z,99888.06
2019-02-20T11:00:29.742Z,99890.53
2019-02-20T11:03:00.212Z,99901.31
2019-02-20T11:05:30.677Z,99894.30
2019-02-20T11:08:01.186Z,99899.02
2019-02-20T11:10:31.808Z,99896.09
2019-02-20T11:13:02.356Z,99898.59
2019-02-20T11:15:32.905Z,99900.83
2019-02-20T11:18:03.371Z,99898.81
2019-02-20T11:20:33.887Z,99903.88
2019-02-20T11:23:04.596Z,99899.00
2019-02-20T11:25:35.042Z,99902.03
2019-02-20T11:28:05.555Z,99902.08
2019-02-20T11:30:35.945Z,99896.30
2019-02-20T11:33:06.414Z,99903.34
2019-02-20T11:35:36.873Z,99895.78
2019-02-20T11:38:07.280Z,99900.67
2019-02-20T11:40:37.613Z,99901.91
2019-02-20T11:43:08.148Z,99903.77
2019-02-20T11:45:38.618Z,99908.36
2019-02-20T11:48:09.532Z,99908.60
2019-02-20T11:50:40.065Z,99908.18
2019-02-20T11:53:10.582Z,99909.95
2019-02-20T11:55:40.993Z,99903.50
2019-02-20T11:58:11.484Z,99902.53
2019-02-20T12:00:42.098Z,99905.98
2019-02-20T12:03:12.536Z,99911.45
2019-02-20T12:05:43.373Z,99910.68
2019-02-20T12:08:14.101Z,99912.53
2019-02-20T12:10:44.631Z,99915.48
2019-02-20T12:13:15.019Z,99910.79
2019-02-20T12:15:45.605Z,99913.41
2019-02-20T12:18:17.601Z,99919.48
2019-02-20T12:20:48.075Z,99920.70
2019-02-20T12:23:18.570Z,99920.47
2019-02-20T12:25:48.941Z,99926.94
2019-02-20T12:28:19.332Z,99925.52
2019-02-20T12:30:49.912Z,99922.49
2019-02-20T12:33:20.342Z,99913.66
2019-02-20T12:35:50.713Z,99911.75
2019-02-20T12:38:21.115Z,99914.09
2019-02-20T12:40:51.557Z,99923.68
2019-02-20T12:43:21.835Z,99923.58
2019-02-20T12:45:52.374Z,99926.02
2019-02-20T12:48:22.860Z,99928.22
2019-02-20T12:50:53.243Z,99925.48
2019-02-20T12:53:23.780Z,99920.09
2019-02-20T12:55:54.188Z,99921.05
2019-02-20T12:58:24.567Z,99925.13
2019-02-20T13:00:55.132Z,99926.53
2019-02-20T13:03:25.608Z,99925.21
2019-02-20T13:05:56.026Z,99923.71
2019-02-20T13:08:26.520Z,99924.41
2019-02-20T13:10:56.976Z,99918.20
2019-02-20T13:13:27.514Z,99923.57
2019-02-20T13:15:58.139Z,99923.36
2019-02-20T13:18:28.516Z,99932.03
2019-02-20T13:20:59.338Z,99923.95
2019-02-20T13:23:29.775Z,99926.92
2019-02-20T13:26:00.190Z,99927.09
2019-02-20T13:28:30.659Z,99931.63
2019-02-20T13:31:01.153Z,99929.62
2019-02-20T13:33:31.530Z,99931.42
2019-02-20T13:36:02.096Z,99924.98
2019-02-20T13:38:32.683Z,99933.26
2019-02-20T13:41:03.029Z,99931.80
2019-02-20T13:43:33.599Z,99941.95
2019-02-20T13:46:04.042Z,99934.28
2019-02-20T13:48:34.990Z,99934.72
2019-02-20T13:51:05.709Z,99935.08
2019-02-20T13:53:36.188Z,99932.15
2019-02-20T13:56:07.174Z,99939.45
2019-02-20T13:58:38.422Z,99938.70
2019-02-20T14:01:11.267Z,99944.78
2019-02-20T14:03:41.688Z,99956.39
2019-02-20T14:06:12.235Z,99954.44
2019-02-20T14:08:42.735Z,99954.92
2019-02-20T14:11:13.460Z,99944.78
2019-02-20T14:13:43.819Z,99953.66
2019-02-20T14:16:14.891Z,99951.17
2019-02-20T14:18:45.553Z,99954.98
2019-02-20T14:21:16.053Z,99957.30
2019-02-20T14:23:46.465Z,99960.09
2019-02-20T14:26:16.939Z,99955.52
2019-02-20T14:28:47.462Z,99948.47
2019-02-20T14:31:17.981Z,99954.87
2019-02-20T14:33:48.518Z,99949.27
2019-02-20T14:36:19.083Z,99962.38
2019-02-20T14:38:49.890Z,99953.27
2019-02-20T14:41:21.392Z,99952.95
2019-02-20T14:43:52.119Z,99957.22
2019-02-20T14:46:22.771Z,99951.95
2019-02-20T14:48:53.334Z,99952.06
2019-02-20T14:51:23.956Z,99956.91
2019-02-20T14:53:54.594Z,99951.79
2019-02-20T14:56:26.228Z,99952.93
2019-02-20T14:58:56.750Z,99957.91
2019-02-20T15:01:27.243Z,99959.70
2019-02-20T15:03:57.745Z,99959.20
2019-02-20T15:06:28.874Z,99954.97
2019-02-20T15:08:59.465Z,99958.52
2019-02-20T15:11:29.905Z,99958.30
2019-02-20T15:14:00.560Z,99965.24
2019-02-20T15:16:31.247Z,99962.41
2019-02-20T15:19:16.007Z,99958.09
2019-02-20T15:21:46.512Z,99969.28
2019-02-20T15:24:17.717Z,99972.77
2019-02-20T15:26:48.832Z,99963.25
2019-02-20T15:29:19.688Z,99959.70
2019-02-20T15:31:50.891Z,99968.84
2019-02-20T15:34:21.621Z,99971.17
2019-02-20T15:36:52.483Z,99973.30
2019-02-20T15:39:23.300Z,99970.23
2019-02-20T15:41:54.160Z,99973.34
2019-02-20T15:44:24.769Z,99969.14
2019-02-20T15:46:55.685Z,99973.77
2019-02-20T15:49:26.425Z,99976.23
2019-02-20T15:51:57.020Z,99978.88
2019-02-20T15:54:27.587Z,99977.58
2019-02-20T15:56:58.255Z,99976.62
2019-02-20T15:59:29.475Z,99977.92
2019-02-20T16:02:05.315Z,99978.51
2019-02-20T16:04:35.899Z,99972.30
2019-02-20T16:07:06.494Z,99975.16
2019-02-20T16:09:37.469Z,99979.19
2019-02-20T16:12:08.853Z,99983.07
2019-02-20T16:14:42.122Z,99977.16
2019-02-20T16:17:13.000Z,99988.45
2019-02-20T16:19:47.207Z,99993.60
2019-02-20T16:22:18.055Z,99990.67
2019-02-20T16:24:48.815Z,100000.83
2019-02-20T16:27:19.961Z,100003.90
2019-02-20T16:29:54.351Z,100003.39
2019-02-20T16:32:25.282Z,100006.72
2019-02-20T16:34:55.843Z,100007.24
2019-02-20T16:37:26.420Z,100008.53
2019-02-20T16:39:58.195Z,100013.79
2019-02-20T16:42:28.785Z,100007.36
2019-02-20T16:44:59.615Z,100011.99
2019-02-20T16:47:30.342Z,100009.05
2019-02-20T16:50:00.871Z,100008.38
2019-02-20T16:52:31.770Z,100013.52
2019-02-20T16:55:02.440Z,100018.03
2019-02-20T16:57:33.220Z,100017.63
2019-02-20T17:00:03.976Z,100024.71
2019-02-20T17:02:34.693Z,100025.62
2019-02-20T17:05:14.134Z,100026.00
2019-02-20T17:07:40.685Z,100030.64
2019-02-20T17:10:14.574Z,100025.50
2019-02-20T17:12:45.308Z,100031.02
2019-02-20T17:15:16.547Z,100030.48
2019-02-20T17:17:47.146Z,100030.62
2019-02-20T17:20:21.850Z,100034.23
2019-02-20T17:22:52.629Z,100040.37
2019-02-20T17:25:23.373Z,100043.07
2019-02-20T17:27:55.764Z,100047.96
2019-02-20T17:30:27.552Z,100047.84
2019-02-20T17:32:58.102Z,100054.52
2019-02-20T17:35:32.852Z,100055.42
2019-02-20T17:38:04.750Z,100052.73
2019-02-20T17:40:36.850Z,100060.19
2019-02-20T17:43:08.621Z,100058.61
2019-02-20T17:45:39.734Z,100061.72
2019-02-20T17:48:12.849Z,100061.84
2019-02-20T17:50:43.342Z,100058.09
2019-02-20T17:53:17.323Z,100061.95
2019-02-20T17:55:52.561Z,100063.48
2019-02-20T17:58:29.805Z,100069.25
2019-02-20T18:01:03.108Z,100068.13
2019-02-20T18:03:37.827Z,100073.77
2019-02-20T18:06:10.104Z,100073.52
2019-02-20T18:08:46.282Z,100074.14
2019-02-20T18:11:19.011Z,100076.96
2019-02-20T18:13:49.778Z,100076.83
2019-02-20T18:16:21.693Z,100077.73
2019-02-20T18:18:52.295Z,100075.41
2019-02-20T18:21:23.937Z,100082.73
2019-02-20T18:23:54.926Z,100080.30
2019-02-20T18:26:28.341Z,100086.72
2019-02-20T18:29:02.609Z,100086.34
2019-02-20T18:31:33.854Z,100086.61
2019-02-20T18:34:11.625Z,100088.69
2019-02-20T18:36:53.181Z,100086.98
2019-02-20T18:39:24.246Z,100087.36
2019-02-20T18:41:58.877Z,100088.92
2019-02-20T18:44:30.513Z,100093.94
2019-02-20T18:47:03.085Z,100095.34
2019-02-20T18:49:49.459Z,100093.16
2019-02-20T18:52:29.234Z,100102.27
2019-02-20T18:55:06.196Z,100109.86
2019-02-20T18:57:41.489Z,100108.19
2019-02-20T19:00:18.944Z,100110.86
2019-02-20T19:02:57.358Z,100114.83
2019-02-20T19:05:28.761Z,100114.25
2019-02-20T19:08:03.164Z,100116.80
2019-02-20T19:10:39.832Z,100115.74
2019-02-20T19:14:01.965Z,100120.59
2019-02-20T19:17:31.305Z,100122.84
2019-02-20T19:20:31.882Z,100123.06
2019-02-20T19:24:02.141Z,100122.54
2019-02-20T19:27:20.005Z,100125.85
2019-02-20T19:30:33.991Z,100128.39
2019-02-20T19:33:57.850Z,100129.41
2019-02-20T19:37:21.281Z,100131.06
2019-02-20T19:40:44.024Z,100133.73
2019-02-20T19:43:53.773Z,100129.78
2019-02-20T19:47:01.096Z,100137.31
2019-02-20T19:50:17.265Z,100149.00
2019-02-20T19:53:36.335Z,100144.00
2019-02-20T19:56:52.570Z,100148.63
2019-02-20T20:00:07.609Z,100151.33
2019-02-20T20:03:11.352Z,100143.02
2019-02-20T20:06:37.722Z,100149.36
2019-02-20T20:09:49.250Z,100149.08
2019-02-20T20:13:03.379Z,100147.05
2019-02-20T20:16:20.346Z,100148.73
2019-02-20T20:19:42.686Z,100146.84
2019-02-20T20:22:59.618Z,100147.21
2019-02-20T20:26:21.516Z,100148.63
2019-02-20T20:29:29.873Z,100151.08
2019-02-20T20:32:32.087Z,100153.17
2019-02-20T20:35:40.059Z,100153.97
2019-02-20T20:38:41.661Z,100147.03
2019-02-20T20:41:57.200Z,100155.50
2019-02-20T20:45:00.885Z,100154.08
2019-02-20T20:48:16.189Z,100150.87
2019-02-20T20:51:48.227Z,100143.30
2019-02-20T20:55:13.029Z,100150.36
2019-02-20T20:58:26.242Z,100156.56
2019-02-20T21:01:47.831Z,100153.39
2019-02-20T21:05:13.145Z,100155.47
2019-02-20T21:08:28.900Z,100153.41
2019-02-20T21:11:40.194Z,100145.42
2019-02-20T21:14:46.087Z,100140.50
2019-02-20T21:18:14.015Z,100140.20
2019-02-20T21:21:22.914Z,100143.78
2019-02-20T21:24:43.727Z,100151.22
2019-02-20T21:27:51.325Z,100149.88
2019-02-20T21:31:09.445Z,100149.10
2019-02-20T21:34:20.736Z,100153.76
2019-02-20T21:37:43.225Z,100161.72
2019-02-20T21:40:35.243Z,100164.55
2019-02-20T21:43:51.399Z,100158.41
2019-02-20T21:46:50.334Z,100156.25
2019-02-20T21:49:44.178Z,100152.55
2019-02-20T21:52:57.924Z,100161.67
2019-02-20T21:55:53.318Z,100158.47
2019-02-20T21:59:21.365Z,100164.67
2019-02-20T22:02:35.082Z,100164.44
2019-02-20T22:05:50.960Z,100172.02
2019-02-20T22:09:12.628Z,100170.47
2019-02-20T22:12:13.702Z,100174.20
2019-02-20T22:15:14.739Z,100173.23
2019-02-20T22:18:30.028Z,100162.55
2019-02-20T22:21:57.874Z,100170.66
2019-02-20T22:25:01.034Z,100170.49
2019-02-20T22:28:10.472Z,100177.08
2019-02-20T22:31:22.424Z,100168.84
2019-02-20T22:34:41.157Z,100166.80
2019-02-20T22:38:05.992Z,100172.92
2019-02-20T22:41:16.613Z,100169.97
2019-02-20T22:44:33.703Z,100167.13
2019-02-20T22:47:30.529Z,100165.28
2019-02-20T22:50:35.854Z,100163.89
2019-02-20T22:53:30.082Z,100165.20
2019-02-20T22:56:57.964Z,100168.67
2019-02-20T23:00:04.665Z,100168.84
2019-02-20T23:03:18.152Z,100176.27
2019-02-20T23:06:34.664Z,100172.29
2019-02-20T23:09:34.664Z,100171.19
2019-02-20T23:12:43.877Z,100177.98
2019-02-20T23:15:14.446Z,100183.01
2019-02-20T23:17:45.105Z,100182.40
2019-02-20T23:20:15.664Z,100183.30
2019-02-20T23:22:46.262Z,100181.67
2019-02-20T23:25:16.975Z,100180.02
2019-02-20T23:27:47.402Z,100181.94
2019-02-20T23:30:17.984Z,100180.15
2019-02-20T23:32:48.374Z,100181.80
2019-02-20T23:35:18.984Z,100178.86
2019-02-20T23:37:49.474Z,100177.08
2019-02-20T23:40:20.062Z,100178.19
2019-02-20T23:42:50.563Z,100180.63
2019-02-20T23:45:21.084Z,100185.26
2019-02-20T23:47:51.594Z,100188.61
2019-02-20T23:50:22.140Z,100189.11
2019-02-20T23:52:52.635Z,100190.39
2019-02-20T23:55:23.241Z,100188.41
2019-02-20T23:57:53.786Z,100189.03
